Bei Facebook empfehlenBei Twitter postenGoogle plusPinterest

Das Wetter im Erzgebirge am 11.03.2016

Wetter und Klima am 11.03.2016 Holzhau im Erzgebirge (630m ü.NN)
Letzte gemessene Temperatur und Uhrzeit der Messung23:45:00 Uhr0.10 °C
Temperatur (Maximum / Höchstwert) und Uhrzeit der Messung12:45:00 Uhr3.30 °C
Temperatur (Minimum / Tiefstwert) und Uhrzeit der Messung00:00:00-1.20 °C
Errechneter Absolutwert der Temperaturschwankungen zwischen Tmin und Tmax des Tages4.50 K
Errechnete Tagesmitteltemperatur1.02708 °C
Gesamt - Niederschlag des Tages (in flüssiger Form)0.00 Liter / m²
Luftdruck (Maximum / Höchstwert) und Zeitpunkt der Messung23:00:00 Uhr1022.90 hPa
Luftdruck (Minimum / Tiefstwert) und Zeitpunkt der Messung00:00:00 Uhr1017.20 hPa
Errechneter Absolutwert der Luftdruckschwankungen des Tages5.70 hPa
Höchste gemessene Windgeschwindigkeit und Uhrzeit der Messung13:00:00 Uhr5.40 km/h
Errechnete Windhäufigkeit in Relation zu den Messwerten des Tages3.12500 %
Niedrigste Windkühle (Windchill) und Zeitpunkt der Messung00:00:00 Uhr-1.20 °C
Taupunkt (Maximum / Höchstwert) und Uhrzeit der Messung12:00:00 Uhr1.80 °C
Taupunkt (Minimum / Tiefstwert) und Uhrzeit der Messung00:00:00-2.80 °C
Anzahl der automatisch eingelesenen Messwerte 96

Detaillierte Wetter- und Klima- Messwerte für den 11.03.2016 in Holzhau im Erzgebirge (630m ü.NN)
ZeitTemperaturLuftdruckRel. LuftfeuchteWindWindrichtungWindchillTaupunktNiederschlag l/m²
23:45:000.10 °C1022.80 hPa90.00 %-1.30 °C 
23:30:000.10 °C1022.70 hPa90.00 %-1.30 °C 
23:15:000.10 °C1022.70 hPa90.00 %-1.30 °C 
23:00:000.20 °C1022.90 hPa89.00 %-1.40 °C 
22:45:000.20 °C1022.80 hPa89.00 %-1.40 °C 
22:30:000.20 °C1022.90 hPa89.00 %-1.40 °C 
22:15:000.20 °C1022.90 hPa89.00 %-1.40 °C 
22:00:000.30 °C1022.60 hPa89.00 %-1.30 °C 
21:45:000.30 °C1022.70 hPa89.00 %-1.30 °C 
21:30:000.40 °C1022.50 hPa89.00 %-1.20 °C 
21:15:000.40 °C1022.40 hPa89.00 %-1.20 °C 
21:00:000.50 °C1022.40 hPa89.00 %-1.10 °C 
20:45:000.60 °C1022.10 hPa89.00 %-1.00 °C 
20:30:000.70 °C1022.00 hPa89.00 %-0.90 °C 
20:15:000.80 °C1021.90 hPa89.00 %-0.80 °C 
20:00:000.90 °C1021.50 hPa89.00 %-0.70 °C 
19:45:000.90 °C1021.50 hPa88.00 %-0.90 °C 
19:30:000.90 °C1021.50 hPa88.00 %-0.90 °C 
19:15:001.00 °C1021.40 hPa88.00 %-0.80 °C 
19:00:001.10 °C1021.60 hPa88.00 %-0.70 °C 
18:45:001.10 °C1021.30 hPa88.00 %-0.70 °C 
18:30:001.30 °C1021.30 hPa87.00 %-0.60 °C 
18:15:001.30 °C1021.20 hPa87.00 %-0.60 °C 
18:00:001.30 °C1021.00 hPa87.00 %-0.60 °C 
17:45:001.50 °C1020.90 hPa87.00 %-0.40 °C 
17:30:001.60 °C1020.80 hPa87.00 %-0.30 °C 
17:15:001.60 °C1020.50 hPa87.00 %-0.30 °C 
17:00:001.80 °C1020.40 hPa87.00 %-0.10 °C 
16:45:001.80 °C1020.40 hPa87.00 %-0.10 °C 
16:30:001.90 °C1020.50 hPa87.00 %0.00 °C 
16:15:001.90 °C1020.40 hPa87.00 %0.00 °C 
16:00:001.90 °C1020.50 hPa87.00 %0.00 °C 
15:45:002.10 °C1020.30 hPa87.00 %0.20 °C 
15:30:001.90 °C1020.40 hPa87.00 %0.00 °C 
15:15:002.10 °C1020.30 hPa87.00 %0.20 °C 
15:00:002.10 °C1020.20 hPa86.00 %0.00 °C 
14:45:002.10 °C1020.50 hPa86.00 %0.00 °C 
14:30:002.10 °C1020.30 hPa86.00 %0.00 °C 
14:15:002.20 °C1020.40 hPa86.00 %0.10 °C 
14:00:002.30 °C1020.30 hPa86.00 %0.20 °C 
13:45:002.50 °C1020.40 hPa86.00 %0.40 °C 
13:30:002.70 °C1020.30 hPa86.00 %0.60 °C 
13:15:002.80 °C1020.40 hPa86.00 %0.70 °C 
13:00:003.20 °C1020.30 hPa87.00 %5.40 km/hNW1.90 °C1.30 °C 
12:45:003.30 °C1020.30 hPa88.00 %1.50 °C 
12:30:002.90 °C1020.20 hPa89.00 %1.30 °C 
12:15:003.10 °C1020.30 hPa89.00 %1.50 °C 
12:00:003.30 °C1020.30 hPa90.00 %1.80 °C 
11:45:003.00 °C1020.30 hPa91.00 %1.70 °C 
11:30:002.60 °C1020.30 hPa91.00 %1.30 °C 
11:15:002.70 °C1020.30 hPa91.00 %1.40 °C 
11:00:002.60 °C1020.20 hPa92.00 %1.40 °C 
10:45:002.30 °C1020.30 hPa92.00 %1.10 °C 
10:30:002.30 °C1020.40 hPa92.00 %1.10 °C 
10:15:002.10 °C1020.20 hPa93.00 %1.10 °C 
10:00:001.90 °C1020.00 hPa93.00 %0.90 °C 
09:45:001.90 °C1019.90 hPa93.00 %0.90 °C 
09:30:001.90 °C1019.90 hPa94.00 %1.00 °C 
09:15:001.60 °C1019.80 hPa94.00 %0.70 °C 
09:00:001.60 °C1019.70 hPa93.00 %0.60 °C 
08:45:001.60 °C1019.70 hPa93.00 %3.24 km/hNW1.60 °C0.60 °C 
08:30:001.30 °C1019.70 hPa93.00 %0.30 °C 
08:15:001.20 °C1019.60 hPa93.00 %0.20 °C 
08:00:000.90 °C1019.50 hPa93.00 %-0.10 °C 
07:45:000.80 °C1019.50 hPa93.00 %-0.20 °C 
07:30:000.70 °C1019.10 hPa93.00 %-0.30 °C 
07:15:000.60 °C1018.90 hPa93.00 %-0.40 °C 
07:00:000.50 °C1018.70 hPa93.00 %-0.50 °C 
06:45:000.30 °C1018.50 hPa93.00 %-0.70 °C 
06:30:000.10 °C1018.60 hPa93.00 %-0.90 °C 
06:15:00-0.10 °C1018.50 hPa93.00 %-1.20 °C 
06:00:00-0.20 °C1018.10 hPa92.00 %-1.50 °C 
05:45:00-0.10 °C1018.00 hPa92.00 %-1.40 °C 
05:30:000.10 °C1018.10 hPa92.00 %-1.00 °C 
05:15:000.20 °C1018.10 hPa92.00 %-0.90 °C 
05:00:000.40 °C1017.90 hPa93.00 %-0.60 °C 
04:45:000.40 °C1017.80 hPa93.00 %2.88 km/hONO0.40 °C-0.60 °C 
04:30:000.40 °C1018.00 hPa93.00 %-0.60 °C 
04:15:000.50 °C1017.80 hPa93.00 %-0.50 °C 
04:00:000.30 °C1017.80 hPa92.00 %-0.80 °C 
03:45:000.10 °C1017.90 hPa92.00 %-1.00 °C 
03:30:00-0.10 °C1017.90 hPa92.00 %-1.40 °C 
03:15:00-0.10 °C1017.70 hPa92.00 %-1.40 °C 
03:00:00-0.20 °C1017.70 hPa92.00 %-1.50 °C 
02:45:00-0.20 °C1017.80 hPa92.00 %-1.50 °C 
02:30:00-0.20 °C1017.70 hPa92.00 %-1.50 °C 
02:15:00-0.40 °C1017.80 hPa92.00 %-1.70 °C 
02:00:00-0.60 °C1017.70 hPa92.00 %-1.90 °C 
01:45:00-0.70 °C1017.80 hPa92.00 %-2.00 °C 
01:30:00-0.90 °C1017.80 hPa91.00 %-2.30 °C 
01:15:00-0.80 °C1017.60 hPa91.00 %-2.20 °C 
01:00:00-0.50 °C1017.60 hPa91.00 %-1.90 °C 
00:45:00-0.40 °C1017.40 hPa91.00 %-1.80 °C 
00:30:00-0.50 °C1017.50 hPa91.00 %-1.90 °C 
00:15:00-0.70 °C1017.30 hPa91.00 %-2.10 °C 
00:00:00-1.20 °C1017.20 hPa90.00 %-2.80 °C 

Permanenter Link zu dieser Seite: Wetter im Erzgebirge am 11.03.2016
Performance-Info: Die Erstellung der Seite / Statistik(en) / Tabelle(n) erforderte 5 Datenbankserver-Abfrage(n) und dauerte 101 Millisekunden. (Dieser Messwert ist von der Gesamt-Auslastung des Servers abhängig.)
Erzgebirge - Wetter | Erzgebirge - Wetter (Mobilgeräte) | Komplette Klimadatenbank